sensor_id;sensor_type;location;lat;lon;timestamp;P1;durP1;ratioP1;P2;durP2;ratioP2
44126;SDS011;29786;50.798;7.302;2023-07-28T00:00:20;2;;;1.7;;
44126;SDS011;29786;50.798;7.302;2023-07-28T00:01:19;2.2;;;1.7;;
44126;SDS011;29786;50.798;7.302;2023-07-28T00:02:20;2.8;;;1.8;;
44126;SDS011;29786;50.798;7.302;2023-07-28T00:03:19;1.7;;;1.5;;
44126;SDS011;29786;50.798;7.302;2023-07-28T00:04:19;1.9;;;1.6;;
44126;SDS011;29786;50.798;7.302;2023-07-28T00:05:20;1.7;;;1.5;;
44126;SDS011;29786;50.798;7.302;2023-07-28T00:06:19;2.7;;;1.7;;
44126;SDS011;29786;50.798;7.302;2023-07-28T00:07:20;2.8;;;1.7;;
44126;SDS011;29786;50.798;7.302;2023-07-28T00:08:20;1.7;;;1.5;;
44126;SDS011;29786;50.798;7.302;2023-07-28T00:09:20;3.4;;;1.9;;
44126;SDS011;29786;50.798;7.302;2023-07-28T00:10:19;1.6;;;1.4;;
44126;SDS011;29786;50.798;7.302;2023-07-28T00:11:20;2.2;;;1.7;;
44126;SDS011;29786;50.798;7.302;2023-07-28T00:12:20;1.7;;;1.5;;
44126;SDS011;29786;50.798;7.302;2023-07-28T00:13:19;2.1;;;1.4;;
44126;SDS011;29786;50.798;7.302;2023-07-28T00:14:19;1.3;;;1.2;;
44126;SDS011;29786;50.798;7.302;2023-07-28T00:15:19;3.3;;;1.5;;
44126;SDS011;29786;50.798;7.302;2023-07-28T00:16:20;2.5;;;1.5;;
44126;SDS011;29786;50.798;7.302;2023-07-28T00:17:20;3.2;;;1.8;;
44126;SDS011;29786;50.798;7.302;2023-07-28T00:18:19;3.9;;;1.3;;
44126;SDS011;29786;50.798;7.302;2023-07-28T00:19:20;1.8;;;1.5;;
44126;SDS011;29786;50.798;7.302;2023-07-28T00:20:19;2.7;;;1.6;;
44126;SDS011;29786;50.798;7.302;2023-07-28T00:21:20;2.4;;;1.7;;
44126;SDS011;29786;50.798;7.302;2023-07-28T00:22:19;2.9;;;1.7;;
44126;SDS011;29786;50.798;7.302;2023-07-28T00:23:19;4.4;;;1.6;;
44126;SDS011;29786;50.798;7.302;2023-07-28T00:24:19;1.9;;;1.7;;
44126;SDS011;29786;50.798;7.302;2023-07-28T00:25:19;1.9;;;1.5;;
44126;SDS011;29786;50.798;7.302;2023-07-28T00:26:19;2.4;;;1.6;;
44126;SDS011;29786;50.798;7.302;2023-07-28T00:27:19;2.7;;;1.7;;
44126;SDS011;29786;50.798;7.302;2023-07-28T00:28:20;5.3;;;1.7;;
44126;SDS011;29786;50.798;7.302;2023-07-28T00:29:19;2.1;;;1.7;;
44126;SDS011;29786;50.798;7.302;2023-07-28T00:30:19;2.4;;;1.6;;
44126;SDS011;29786;50.798;7.302;2023-07-28T00:31:19;2.1;;;1.7;;
44126;SDS011;29786;50.798;7.302;2023-07-28T00:32:20;4.3;;;1.5;;
44126;SDS011;29786;50.798;7.302;2023-07-28T00:33:20;1.8;;;1.7;;
44126;SDS011;29786;50.798;7.302;2023-07-28T00:34:20;1.5;;;1.4;;
44126;SDS011;29786;50.798;7.302;2023-07-28T00:35:20;2.8;;;1.5;;
44126;SDS011;29786;50.798;7.302;2023-07-28T00:36:20;5.3;;;2;;
44126;SDS011;29786;50.798;7.302;2023-07-28T00:37:19;1.6;;;1.5;;
44126;SDS011;29786;50.798;7.302;2023-07-28T00:38:20;2.2;;;1.4;;
44126;SDS011;29786;50.798;7.302;2023-07-28T00:39:20;1.6;;;1.5;;
44126;SDS011;29786;50.798;7.302;2023-07-28T00:40:19;2.8;;;1.5;;
44126;SDS011;29786;50.798;7.302;2023-07-28T00:41:19;1.4;;;1.3;;
44126;SDS011;29786;50.798;7.302;2023-07-28T00:42:19;1.8;;;1.4;;
44126;SDS011;29786;50.798;7.302;2023-07-28T00:43:18;1.5;;;1.4;;
44126;SDS011;29786;50.798;7.302;2023-07-28T00:44:19;2;;;1.7;;
44126;SDS011;29786;50.798;7.302;2023-07-28T00:45:19;2.9;;;1.6;;
44126;SDS011;29786;50.798;7.302;2023-07-28T00:46:19;2.3;;;1.5;;
44126;SDS011;29786;50.798;7.302;2023-07-28T00:47:19;3.5;;;1.7;;
44126;SDS011;29786;50.798;7.302;2023-07-28T00:48:20;2.7;;;1.5;;
44126;SDS011;29786;50.798;7.302;2023-07-28T00:49:19;1.7;;;1.6;;
44126;SDS011;29786;50.798;7.302;2023-07-28T00:50:19;3.2;;;1.6;;
44126;SDS011;29786;50.798;7.302;2023-07-28T00:51:19;1.9;;;1.6;;
44126;SDS011;29786;50.798;7.302;2023-07-28T00:52:20;1.9;;;1.7;;
44126;SDS011;29786;50.798;7.302;2023-07-28T00:53:20;1.9;;;1.4;;
44126;SDS011;29786;50.798;7.302;2023-07-28T00:54:20;2.7;;;1.6;;
44126;SDS011;29786;50.798;7.302;2023-07-28T00:55:19;2.1;;;1.6;;
44126;SDS011;29786;50.798;7.302;2023-07-28T00:56:19;2.7;;;1.7;;
44126;SDS011;29786;50.798;7.302;2023-07-28T00:57:19;1.6;;;1.5;;
44126;SDS011;29786;50.798;7.302;2023-07-28T00:58:19;2.6;;;1.4;;
44126;SDS011;29786;50.798;7.302;2023-07-28T00:59:19;3.1;;;1.3;;
44126;SDS011;29786;50.798;7.302;2023-07-28T01:00:20;1.9;;;1.4;;
44126;SDS011;29786;50.798;7.302;2023-07-28T01:01:20;2.1;;;1.3;;
44126;SDS011;29786;50.798;7.302;2023-07-28T01:02:20;3.3;;;1.3;;
44126;SDS011;29786;50.798;7.302;2023-07-28T01:03:19;1.8;;;1.4;;
44126;SDS011;29786;50.798;7.302;2023-07-28T01:04:19;1.6;;;1.3;;
44126;SDS011;29786;50.798;7.302;2023-07-28T01:05:21;1.5;;;1.4;;
44126;SDS011;29786;50.798;7.302;2023-07-28T01:06:24;1.5;;;1.4;;
44126;SDS011;29786;50.798;7.302;2023-07-28T01:07:22;3.3;;;1.5;;
44126;SDS011;29786;50.798;7.302;2023-07-28T01:08:25;1.9;;;1.7;;
44126;SDS011;29786;50.798;7.302;2023-07-28T01:09:21;1.8;;;1.4;;
44126;SDS011;29786;50.798;7.302;2023-07-28T01:10:22;1.1;;;1;;
44126;SDS011;29786;50.798;7.302;2023-07-28T01:11:19;1.3;;;1.2;;
44126;SDS011;29786;50.798;7.302;2023-07-28T01:12:19;1.8;;;1.6;;
44126;SDS011;29786;50.798;7.302;2023-07-28T01:13:20;1.7;;;1.3;;
44126;SDS011;29786;50.798;7.302;2023-07-28T01:14:20;1.4;;;1.3;;
44126;SDS011;29786;50.798;7.302;2023-07-28T01:15:19;2.2;;;1.3;;
44126;SDS011;29786;50.798;7.302;2023-07-28T01:16:20;1.8;;;1.4;;
44126;SDS011;29786;50.798;7.302;2023-07-28T01:17:19;3.3;;;1.6;;
44126;SDS011;29786;50.798;7.302;2023-07-28T01:18:20;1.9;;;1.4;;
44126;SDS011;29786;50.798;7.302;2023-07-28T01:19:20;1.6;;;1.5;;
44126;SDS011;29786;50.798;7.302;2023-07-28T01:20:19;2.6;;;1.4;;
44126;SDS011;29786;50.798;7.302;2023-07-28T01:21:21;1.8;;;1.4;;
44126;SDS011;29786;50.798;7.302;2023-07-28T01:22:56;2.1;;;1.3;;
44126;SDS011;29786;50.798;7.302;2023-07-28T01:23:20;1.7;;;1.6;;
44126;SDS011;29786;50.798;7.302;2023-07-28T01:24:21;1.7;;;1.6;;
44126;SDS011;29786;50.798;7.302;2023-07-28T01:26:30;2.7;;;1.6;;
44126;SDS011;29786;50.798;7.302;2023-07-28T01:27:20;1.8;;;1.4;;
44126;SDS011;29786;50.798;7.302;2023-07-28T01:28:18;2.4;;;1.5;;
44126;SDS011;29786;50.798;7.302;2023-07-28T01:29:20;2.4;;;1.6;;
44126;SDS011;29786;50.798;7.302;2023-07-28T01:30:20;4;;;1.8;;
44126;SDS011;29786;50.798;7.302;2023-07-28T01:31:19;2.7;;;1.5;;
44126;SDS011;29786;50.798;7.302;2023-07-28T01:32:19;2.4;;;1.4;;
44126;SDS011;29786;50.798;7.302;2023-07-28T01:33:19;2.2;;;1.3;;
44126;SDS011;29786;50.798;7.302;2023-07-28T01:34:20;3.3;;;1.4;;
44126;SDS011;29786;50.798;7.302;2023-07-28T01:35:20;2.1;;;1.4;;
44126;SDS011;29786;50.798;7.302;2023-07-28T01:36:19;3.3;;;1.4;;
44126;SDS011;29786;50.798;7.302;2023-07-28T01:37:20;2.3;;;1.6;;
44126;SDS011;29786;50.798;7.302;2023-07-28T01:38:19;2;;;1.6;;
44126;SDS011;29786;50.798;7.302;2023-07-28T01:39:20;3;;;1.6;;
44126;SDS011;29786;50.798;7.302;2023-07-28T01:40:19;2.3;;;1.4;;
44126;SDS011;29786;50.798;7.302;2023-07-28T01:41:19;2.9;;;1.6;;
44126;SDS011;29786;50.798;7.302;2023-07-28T01:42:19;1.6;;;1.5;;
44126;SDS011;29786;50.798;7.302;2023-07-28T01:43:20;1.5;;;1.4;;
44126;SDS011;29786;50.798;7.302;2023-07-28T01:44:19;1.5;;;1.4;;
44126;SDS011;29786;50.798;7.302;2023-07-28T01:45:19;1.6;;;1.4;;
44126;SDS011;29786;50.798;7.302;2023-07-28T01:46:19;1.7;;;1.5;;
44126;SDS011;29786;50.798;7.302;2023-07-28T01:47:19;1.5;;;1.4;;
44126;SDS011;29786;50.798;7.302;2023-07-28T01:48:20;1.6;;;1.5;;
44126;SDS011;29786;50.798;7.302;2023-07-28T01:49:19;1.5;;;1.3;;
44126;SDS011;29786;50.798;7.302;2023-07-28T01:50:19;2.4;;;1.2;;
44126;SDS011;29786;50.798;7.302;2023-07-28T01:51:20;3.7;;;1.3;;
44126;SDS011;29786;50.798;7.302;2023-07-28T01:52:20;1.4;;;1.3;;
44126;SDS011;29786;50.798;7.302;2023-07-28T01:53:19;1.4;;;1.3;;
44126;SDS011;29786;50.798;7.302;2023-07-28T01:54:19;2;;;1.3;;
44126;SDS011;29786;50.798;7.302;2023-07-28T01:55:19;2.4;;;1.5;;
44126;SDS011;29786;50.798;7.302;2023-07-28T01:56:19;2.1;;;1.2;;
44126;SDS011;29786;50.798;7.302;2023-07-28T01:57:20;1.7;;;1.3;;
44126;SDS011;29786;50.798;7.302;2023-07-28T01:58:19;1.9;;;1.2;;
44126;SDS011;29786;50.798;7.302;2023-07-28T01:59:19;1.8;;;1.4;;
44126;SDS011;29786;50.798;7.302;2023-07-28T02:00:20;2.9;;;1.4;;
44126;SDS011;29786;50.798;7.302;2023-07-28T02:01:19;1.6;;;1.5;;
44126;SDS011;29786;50.798;7.302;2023-07-28T02:02:19;2.9;;;1.5;;
44126;SDS011;29786;50.798;7.302;2023-07-28T02:03:19;2.3;;;1.5;;
44126;SDS011;29786;50.798;7.302;2023-07-28T02:04:20;1.4;;;1.3;;
44126;SDS011;29786;50.798;7.302;2023-07-28T02:05:19;2.4;;;1.2;;
44126;SDS011;29786;50.798;7.302;2023-07-28T02:06:19;2;;;1.3;;
44126;SDS011;29786;50.798;7.302;2023-07-28T02:07:20;1.3;;;1.2;;
44126;SDS011;29786;50.798;7.302;2023-07-28T02:08:20;1.5;;;1.4;;
44126;SDS011;29786;50.798;7.302;2023-07-28T02:09:19;2.3;;;1.3;;
44126;SDS011;29786;50.798;7.302;2023-07-28T02:10:19;1.9;;;1.4;;
44126;SDS011;29786;50.798;7.302;2023-07-28T02:11:19;1.9;;;1.2;;
44126;SDS011;29786;50.798;7.302;2023-07-28T02:12:20;1.4;;;1.3;;
44126;SDS011;29786;50.798;7.302;2023-07-28T02:13:20;2.2;;;1.4;;
44126;SDS011;29786;50.798;7.302;2023-07-28T02:14:19;2.1;;;1.5;;
44126;SDS011;29786;50.798;7.302;2023-07-28T02:15:19;1.5;;;1.4;;
44126;SDS011;29786;50.798;7.302;2023-07-28T02:16:20;2.3;;;1.4;;
44126;SDS011;29786;50.798;7.302;2023-07-28T02:17:20;1.7;;;1.1;;
44126;SDS011;29786;50.798;7.302;2023-07-28T02:18:20;3.3;;;1.8;;
44126;SDS011;29786;50.798;7.302;2023-07-28T02:19:19;1.5;;;1.4;;
44126;SDS011;29786;50.798;7.302;2023-07-28T02:20:19;1.5;;;1.3;;
44126;SDS011;29786;50.798;7.302;2023-07-28T02:21:20;2.7;;;1.5;;
44126;SDS011;29786;50.798;7.302;2023-07-28T02:22:19;1.6;;;1.3;;
44126;SDS011;29786;50.798;7.302;2023-07-28T02:23:20;1.7;;;1.3;;
44126;SDS011;29786;50.798;7.302;2023-07-28T02:24:19;2.7;;;1.6;;
44126;SDS011;29786;50.798;7.302;2023-07-28T02:25:19;1.6;;;1.5;;
44126;SDS011;29786;50.798;7.302;2023-07-28T02:26:19;2;;;1.4;;
44126;SDS011;29786;50.798;7.302;2023-07-28T02:27:19;1.5;;;1.4;;
44126;SDS011;29786;50.798;7.302;2023-07-28T02:28:19;3.5;;;1.6;;
44126;SDS011;29786;50.798;7.302;2023-07-28T02:29:20;2.9;;;1.4;;
44126;SDS011;29786;50.798;7.302;2023-07-28T02:30:19;1.8;;;1.4;;
44126;SDS011;29786;50.798;7.302;2023-07-28T02:31:20;2.8;;;1.5;;
44126;SDS011;29786;50.798;7.302;2023-07-28T02:32:20;3.2;;;1.5;;
44126;SDS011;29786;50.798;7.302;2023-07-28T02:33:19;5;;;1.6;;
44126;SDS011;29786;50.798;7.302;2023-07-28T02:34:19;2;;;1.4;;
44126;SDS011;29786;50.798;7.302;2023-07-28T02:35:20;3.3;;;1.7;;
44126;SDS011;29786;50.798;7.302;2023-07-28T02:36:19;3.9;;;1.7;;
44126;SDS011;29786;50.798;7.302;2023-07-28T02:37:20;4;;;1.7;;
44126;SDS011;29786;50.798;7.302;2023-07-28T02:38:20;3;;;1.7;;
44126;SDS011;29786;50.798;7.302;2023-07-28T02:39:20;2.8;;;1.7;;
44126;SDS011;29786;50.798;7.302;2023-07-28T02:40:19;3.5;;;1.9;;
44126;SDS011;29786;50.798;7.302;2023-07-28T02:41:20;3.3;;;2;;
44126;SDS011;29786;50.798;7.302;2023-07-28T02:42:20;2.9;;;2.1;;
44126;SDS011;29786;50.798;7.302;2023-07-28T02:43:19;2.3;;;1.7;;
44126;SDS011;29786;50.798;7.302;2023-07-28T02:44:20;5.5;;;2;;
44126;SDS011;29786;50.798;7.302;2023-07-28T02:45:20;2;;;1.8;;
44126;SDS011;29786;50.798;7.302;2023-07-28T02:46:19;6.2;;;2.5;;
44126;SDS011;29786;50.798;7.302;2023-07-28T02:47:19;2.6;;;1.8;;
44126;SDS011;29786;50.798;7.302;2023-07-28T02:48:20;3.6;;;2;;
44126;SDS011;29786;50.798;7.302;2023-07-28T02:49:19;3.3;;;2.4;;
44126;SDS011;29786;50.798;7.302;2023-07-28T02:50:20;3.7;;;1.7;;
44126;SDS011;29786;50.798;7.302;2023-07-28T02:51:19;3.4;;;2;;
44126;SDS011;29786;50.798;7.302;2023-07-28T02:52:19;2.1;;;1.9;;
44126;SDS011;29786;50.798;7.302;2023-07-28T02:53:19;2.2;;;1.9;;
44126;SDS011;29786;50.798;7.302;2023-07-28T02:54:19;5.9;;;2.2;;
44126;SDS011;29786;50.798;7.302;2023-07-28T02:55:20;3.1;;;1.9;;
44126;SDS011;29786;50.798;7.302;2023-07-28T02:56:19;4.7;;;2.1;;
44126;SDS011;29786;50.798;7.302;2023-07-28T02:58:19;2.3;;;2.1;;
44126;SDS011;29786;50.798;7.302;2023-07-28T02:59:21;3.9;;;2.1;;
44126;SDS011;29786;50.798;7.302;2023-07-28T03:00:19;5.6;;;2.4;;
44126;SDS011;29786;50.798;7.302;2023-07-28T03:01:20;4.1;;;2.1;;
44126;SDS011;29786;50.798;7.302;2023-07-28T03:02:20;4.9;;;1.9;;
44126;SDS011;29786;50.798;7.302;2023-07-28T03:03:20;2.8;;;1.9;;
44126;SDS011;29786;50.798;7.302;2023-07-28T03:04:20;2.2;;;2;;
44126;SDS011;29786;50.798;7.302;2023-07-28T03:05:19;3;;;1.9;;
44126;SDS011;29786;50.798;7.302;2023-07-28T03:06:19;3.5;;;1.8;;
44126;SDS011;29786;50.798;7.302;2023-07-28T03:07:20;5.4;;;2.1;;
44126;SDS011;29786;50.798;7.302;2023-07-28T03:08:19;3;;;2.2;;
44126;SDS011;29786;50.798;7.302;2023-07-28T03:09:19;4.1;;;2.5;;
44126;SDS011;29786;50.798;7.302;2023-07-28T03:10:19;4.5;;;2.1;;
44126;SDS011;29786;50.798;7.302;2023-07-28T03:11:20;2.8;;;2.2;;
44126;SDS011;29786;50.798;7.302;2023-07-28T03:12:20;4.6;;;2.2;;
44126;SDS011;29786;50.798;7.302;2023-07-28T03:13:19;4.1;;;2.4;;
44126;SDS011;29786;50.798;7.302;2023-07-28T03:14:19;4.4;;;2.3;;
44126;SDS011;29786;50.798;7.302;2023-07-28T03:15:20;4.3;;;2.2;;
44126;SDS011;29786;50.798;7.302;2023-07-28T03:16:19;3;;;2.4;;
44126;SDS011;29786;50.798;7.302;2023-07-28T03:17:19;5.5;;;2.2;;
44126;SDS011;29786;50.798;7.302;2023-07-28T03:18:20;3.6;;;2.2;;
44126;SDS011;29786;50.798;7.302;2023-07-28T03:19:20;3.7;;;2.2;;
44126;SDS011;29786;50.798;7.302;2023-07-28T03:20:20;4.1;;;2.1;;
44126;SDS011;29786;50.798;7.302;2023-07-28T03:22:19;4.8;;;2.3;;
44126;SDS011;29786;50.798;7.302;2023-07-28T03:23:19;3.8;;;2.1;;
44126;SDS011;29786;50.798;7.302;2023-07-28T03:24:20;2.8;;;2.1;;
44126;SDS011;29786;50.798;7.302;2023-07-28T03:25:20;4.6;;;2.4;;
44126;SDS011;29786;50.798;7.302;2023-07-28T03:26:20;4.4;;;2.5;;
44126;SDS011;29786;50.798;7.302;2023-07-28T03:27:19;3.2;;;2.2;;
44126;SDS011;29786;50.798;7.302;2023-07-28T03:28:19;3.9;;;2.6;;
44126;SDS011;29786;50.798;7.302;2023-07-28T03:29:20;4.2;;;2.7;;
44126;SDS011;29786;50.798;7.302;2023-07-28T03:30:19;3.9;;;2.3;;
44126;SDS011;29786;50.798;7.302;2023-07-28T03:31:20;4.3;;;2.9;;
44126;SDS011;29786;50.798;7.302;2023-07-28T03:32:19;3.2;;;2.8;;
44126;SDS011;29786;50.798;7.302;2023-07-28T03:33:19;3.2;;;2.9;;
44126;SDS011;29786;50.798;7.302;2023-07-28T03:34:20;4.2;;;2.8;;
44126;SDS011;29786;50.798;7.302;2023-07-28T03:35:19;2.9;;;2.7;;
44126;SDS011;29786;50.798;7.302;2023-07-28T03:36:19;4.7;;;3.5;;
44126;SDS011;29786;50.798;7.302;2023-07-28T03:37:19;5.1;;;2.8;;
44126;SDS011;29786;50.798;7.302;2023-07-28T03:38:20;5;;;2.8;;
44126;SDS011;29786;50.798;7.302;2023-07-28T03:39:19;4.4;;;2.7;;
44126;SDS011;29786;50.798;7.302;2023-07-28T03:40:19;5.2;;;2.8;;
44126;SDS011;29786;50.798;7.302;2023-07-28T03:41:19;5.1;;;2.8;;
44126;SDS011;29786;50.798;7.302;2023-07-28T03:42:19;4.5;;;2.4;;
44126;SDS011;29786;50.798;7.302;2023-07-28T03:43:19;4.4;;;2.5;;
44126;SDS011;29786;50.798;7.302;2023-07-28T03:44:20;3.4;;;2.5;;
44126;SDS011;29786;50.798;7.302;2023-07-28T03:45:19;3.6;;;2.6;;
44126;SDS011;29786;50.798;7.302;2023-07-28T03:46:20;2.8;;;2.2;;
44126;SDS011;29786;50.798;7.302;2023-07-28T03:47:20;4.8;;;2.6;;
44126;SDS011;29786;50.798;7.302;2023-07-28T03:48:19;5.6;;;2.8;;
44126;SDS011;29786;50.798;7.302;2023-07-28T03:49:19;2.3;;;2.1;;
44126;SDS011;29786;50.798;7.302;2023-07-28T03:50:19;3.8;;;2.4;;
44126;SDS011;29786;50.798;7.302;2023-07-28T03:51:19;3.4;;;2.1;;
44126;SDS011;29786;50.798;7.302;2023-07-28T03:52:20;3.4;;;2;;
44126;SDS011;29786;50.798;7.302;2023-07-28T03:53:19;4.4;;;2.2;;
44126;SDS011;29786;50.798;7.302;2023-07-28T03:54:19;4.7;;;2.3;;
44126;SDS011;29786;50.798;7.302;2023-07-28T03:55:19;5.5;;;2.5;;
44126;SDS011;29786;50.798;7.302;2023-07-28T03:56:19;5.3;;;2.4;;
44126;SDS011;29786;50.798;7.302;2023-07-28T03:57:20;2.5;;;2.1;;
44126;SDS011;29786;50.798;7.302;2023-07-28T03:58:20;3.8;;;2.2;;
44126;SDS011;29786;50.798;7.302;2023-07-28T03:59:20;6.5;;;2.6;;
44126;SDS011;29786;50.798;7.302;2023-07-28T04:00:19;3.6;;;1.9;;
44126;SDS011;29786;50.798;7.302;2023-07-28T04:01:19;4.2;;;2.1;;
44126;SDS011;29786;50.798;7.302;2023-07-28T04:02:20;3.6;;;2.1;;
44126;SDS011;29786;50.798;7.302;2023-07-28T04:03:20;4.2;;;2.3;;
44126;SDS011;29786;50.798;7.302;2023-07-28T04:04:19;3.3;;;2;;
44126;SDS011;29786;50.798;7.302;2023-07-28T04:05:18;2.9;;;2.1;;
44126;SDS011;29786;50.798;7.302;2023-07-28T04:06:19;2.3;;;1.9;;
44126;SDS011;29786;50.798;7.302;2023-07-28T04:07:20;5.7;;;2.1;;
44126;SDS011;29786;50.798;7.302;2023-07-28T04:08:19;3.7;;;2;;
44126;SDS011;29786;50.798;7.302;2023-07-28T04:09:19;2.3;;;1.8;;
44126;SDS011;29786;50.798;7.302;2023-07-28T04:10:20;3.4;;;2.1;;
44126;SDS011;29786;50.798;7.302;2023-07-28T04:11:19;3.2;;;1.9;;
44126;SDS011;29786;50.798;7.302;2023-07-28T04:12:20;4.3;;;1.8;;
44126;SDS011;29786;50.798;7.302;2023-07-28T04:13:20;2.5;;;1.8;;
44126;SDS011;29786;50.798;7.302;2023-07-28T04:14:20;5.1;;;1.9;;
44126;SDS011;29786;50.798;7.302;2023-07-28T04:15:19;3.6;;;2;;
44126;SDS011;29786;50.798;7.302;2023-07-28T04:16:19;3.5;;;1.8;;
44126;SDS011;29786;50.798;7.302;2023-07-28T04:17:20;4.7;;;1.8;;
44126;SDS011;29786;50.798;7.302;2023-07-28T04:18:19;4.2;;;1.8;;
44126;SDS011;29786;50.798;7.302;2023-07-28T04:19:20;3.6;;;1.9;;
44126;SDS011;29786;50.798;7.302;2023-07-28T04:20:19;2.5;;;1.5;;
44126;SDS011;29786;50.798;7.302;2023-07-28T04:21:20;2.6;;;1.5;;
44126;SDS011;29786;50.798;7.302;2023-07-28T04:22:19;2.1;;;1.6;;
44126;SDS011;29786;50.798;7.302;2023-07-28T04:23:19;3.7;;;1.7;;
44126;SDS011;29786;50.798;7.302;2023-07-28T04:24:19;3.3;;;1.5;;
44126;SDS011;29786;50.798;7.302;2023-07-28T04:25:19;2.8;;;1.4;;
44126;SDS011;29786;50.798;7.302;2023-07-28T04:26:19;4;;;1.6;;
44126;SDS011;29786;50.798;7.302;2023-07-28T04:27:19;2.2;;;1.7;;
44126;SDS011;29786;50.798;7.302;2023-07-28T04:28:20;3;;;1.5;;
44126;SDS011;29786;50.798;7.302;2023-07-28T04:29:19;1.7;;;1.4;;
44126;SDS011;29786;50.798;7.302;2023-07-28T04:30:20;3.7;;;1.4;;
44126;SDS011;29786;50.798;7.302;2023-07-28T04:31:20;2.4;;;1.5;;
44126;SDS011;29786;50.798;7.302;2023-07-28T04:32:19;1.8;;;1.6;;
44126;SDS011;29786;50.798;7.302;2023-07-28T04:33:20;3;;;1.4;;
44126;SDS011;29786;50.798;7.302;2023-07-28T04:34:19;1.5;;;1.4;;
44126;SDS011;29786;50.798;7.302;2023-07-28T04:35:20;2.7;;;1.5;;
44126;SDS011;29786;50.798;7.302;2023-07-28T04:36:19;1.7;;;1.3;;
44126;SDS011;29786;50.798;7.302;2023-07-28T04:37:19;2.5;;;1.5;;
44126;SDS011;29786;50.798;7.302;2023-07-28T04:38:20;4.2;;;1.7;;
44126;SDS011;29786;50.798;7.302;2023-07-28T04:39:19;3.6;;;1.5;;
44126;SDS011;29786;50.798;7.302;2023-07-28T04:40:20;1.6;;;1.5;;
44126;SDS011;29786;50.798;7.302;2023-07-28T04:41:20;3.9;;;1.4;;
44126;SDS011;29786;50.798;7.302;2023-07-28T04:42:19;2;;;1.6;;
44126;SDS011;29786;50.798;7.302;2023-07-28T04:43:19;3.3;;;1.4;;
44126;SDS011;29786;50.798;7.302;2023-07-28T04:44:19;3.1;;;1.2;;
44126;SDS011;29786;50.798;7.302;2023-07-28T04:45:20;2.4;;;1.4;;
44126;SDS011;29786;50.798;7.302;2023-07-28T04:46:19;2.9;;;1.7;;
44126;SDS011;29786;50.798;7.302;2023-07-28T04:47:19;2.4;;;1.7;;
44126;SDS011;29786;50.798;7.302;2023-07-28T04:48:19;3;;;1.7;;
44126;SDS011;29786;50.798;7.302;2023-07-28T04:49:19;3.7;;;1.4;;
44126;SDS011;29786;50.798;7.302;2023-07-28T04:50:20;2.2;;;2;;
44126;SDS011;29786;50.798;7.302;2023-07-28T04:51:20;3.4;;;2.4;;
44126;SDS011;29786;50.798;7.302;2023-07-28T04:52:19;2;;;1.8;;
44126;SDS011;29786;50.798;7.302;2023-07-28T04:53:20;5.4;;;2;;
44126;SDS011;29786;50.798;7.302;2023-07-28T04:54:20;2.7;;;1.7;;
44126;SDS011;29786;50.798;7.302;2023-07-28T04:55:20;2.4;;;1.7;;
44126;SDS011;29786;50.798;7.302;2023-07-28T04:56:20;3.6;;;1.8;;
44126;SDS011;29786;50.798;7.302;2023-07-28T04:57:20;2.3;;;1.9;;
44126;SDS011;29786;50.798;7.302;2023-07-28T04:58:19;4.7;;;1.8;;
44126;SDS011;29786;50.798;7.302;2023-07-28T04:59:20;1.9;;;1.7;;
44126;SDS011;29786;50.798;7.302;2023-07-28T05:00:20;2;;;1.8;;
44126;SDS011;29786;50.798;7.302;2023-07-28T05:01:19;3.8;;;1.9;;
44126;SDS011;29786;50.798;7.302;2023-07-28T05:02:20;3.6;;;1.8;;
44126;SDS011;29786;50.798;7.302;2023-07-28T05:03:19;2.6;;;2;;
44126;SDS011;29786;50.798;7.302;2023-07-28T05:04:19;4.3;;;1.7;;
44126;SDS011;29786;50.798;7.302;2023-07-28T05:05:20;4;;;1.7;;
44126;SDS011;29786;50.798;7.302;2023-07-28T05:06:20;2.8;;;1.7;;
44126;SDS011;29786;50.798;7.302;2023-07-28T05:07:19;2.7;;;2.3;;
44126;SDS011;29786;50.798;7.302;2023-07-28T05:08:19;2.7;;;1.4;;
44126;SDS011;29786;50.798;7.302;2023-07-28T05:09:20;4.2;;;1.7;;
44126;SDS011;29786;50.798;7.302;2023-07-28T05:10:20;2.5;;;1.7;;
44126;SDS011;29786;50.798;7.302;2023-07-28T05:11:20;2.3;;;1.6;;
44126;SDS011;29786;50.798;7.302;2023-07-28T05:12:19;4.4;;;2.5;;
44126;SDS011;29786;50.798;7.302;2023-07-28T05:13:20;4.9;;;2.2;;
44126;SDS011;29786;50.798;7.302;2023-07-28T05:14:19;3.1;;;1.6;;
44126;SDS011;29786;50.798;7.302;2023-07-28T05:15:19;1.5;;;1.4;;
44126;SDS011;29786;50.798;7.302;2023-07-28T05:16:20;5.3;;;1.6;;
44126;SDS011;29786;50.798;7.302;2023-07-28T05:17:19;3.4;;;1.5;;
44126;SDS011;29786;50.798;7.302;2023-07-28T05:18:19;2.3;;;1.6;;
44126;SDS011;29786;50.798;7.302;2023-07-28T05:19:20;3.3;;;1.6;;
44126;SDS011;29786;50.798;7.302;2023-07-28T05:20:19;5.1;;;1.4;;
44126;SDS011;29786;50.798;7.302;2023-07-28T05:21:19;4;;;2;;
44126;SDS011;29786;50.798;7.302;2023-07-28T05:22:20;4;;;2.1;;
44126;SDS011;29786;50.798;7.302;2023-07-28T05:23:20;3;;;1.6;;
44126;SDS011;29786;50.798;7.302;2023-07-28T05:24:19;3.6;;;1.5;;
44126;SDS011;29786;50.798;7.302;2023-07-28T05:25:19;2.5;;;1.4;;
44126;SDS011;29786;50.798;7.302;2023-07-28T05:26:20;4.2;;;1.6;;
44126;SDS011;29786;50.798;7.302;2023-07-28T05:27:20;4;;;2;;
44126;SDS011;29786;50.798;7.302;2023-07-28T05:28:19;2.9;;;1.5;;
44126;SDS011;29786;50.798;7.302;2023-07-28T05:29:19;1.6;;;1.5;;
44126;SDS011;29786;50.798;7.302;2023-07-28T05:30:19;5.2;;;1.8;;
44126;SDS011;29786;50.798;7.302;2023-07-28T05:31:19;2.5;;;1.7;;
44126;SDS011;29786;50.798;7.302;2023-07-28T05:32:19;2.9;;;2;;
44126;SDS011;29786;50.798;7.302;2023-07-28T05:33:19;3.6;;;1.9;;
44126;SDS011;29786;50.798;7.302;2023-07-28T05:34:19;5;;;1.9;;
44126;SDS011;29786;50.798;7.302;2023-07-28T05:35:19;5.1;;;1.8;;
44126;SDS011;29786;50.798;7.302;2023-07-28T05:36:20;4.4;;;2;;
44126;SDS011;29786;50.798;7.302;2023-07-28T05:37:19;4.6;;;2;;
44126;SDS011;29786;50.798;7.302;2023-07-28T05:38:19;5.2;;;2.1;;
44126;SDS011;29786;50.798;7.302;2023-07-28T05:39:19;4.2;;;2.1;;
44126;SDS011;29786;50.798;7.302;2023-07-28T05:40:19;3.2;;;2;;
44126;SDS011;29786;50.798;7.302;2023-07-28T05:41:19;4.1;;;2.2;;
44126;SDS011;29786;50.798;7.302;2023-07-28T05:42:19;2.3;;;1.6;;
44126;SDS011;29786;50.798;7.302;2023-07-28T05:43:20;4;;;1.9;;
44126;SDS011;29786;50.798;7.302;2023-07-28T05:44:20;3.8;;;1.8;;
44126;SDS011;29786;50.798;7.302;2023-07-28T05:45:19;3.4;;;2.1;;
44126;SDS011;29786;50.798;7.302;2023-07-28T05:46:19;2.8;;;2;;
44126;SDS011;29786;50.798;7.302;2023-07-28T05:47:19;3;;;2.2;;
44126;SDS011;29786;50.798;7.302;2023-07-28T05:48:19;4.6;;;2.1;;
44126;SDS011;29786;50.798;7.302;2023-07-28T05:49:20;4.2;;;2.1;;
44126;SDS011;29786;50.798;7.302;2023-07-28T05:50:19;2.3;;;1.7;;
44126;SDS011;29786;50.798;7.302;2023-07-28T05:51:20;3.4;;;2.4;;
44126;SDS011;29786;50.798;7.302;2023-07-28T05:52:20;3.3;;;1.7;;
44126;SDS011;29786;50.798;7.302;2023-07-28T05:53:20;6.6;;;2.4;;
44126;SDS011;29786;50.798;7.302;2023-07-28T05:54:20;2.7;;;1.8;;
44126;SDS011;29786;50.798;7.302;2023-07-28T05:55:20;4;;;1.7;;
44126;SDS011;29786;50.798;7.302;2023-07-28T05:56:19;2.6;;;1.5;;
44126;SDS011;29786;50.798;7.302;2023-07-28T05:57:19;3.4;;;1.4;;
44126;SDS011;29786;50.798;7.302;2023-07-28T05:58:20;4;;;1.8;;
44126;SDS011;29786;50.798;7.302;2023-07-28T05:59:19;3.1;;;2;;
44126;SDS011;29786;50.798;7.302;2023-07-28T06:00:20;2.2;;;2;;
44126;SDS011;29786;50.798;7.302;2023-07-28T06:01:19;3.1;;;1.9;;
44126;SDS011;29786;50.798;7.302;2023-07-28T06:02:20;3.1;;;1.9;;
44126;SDS011;29786;50.798;7.302;2023-07-28T06:03:20;4.5;;;2;;
44126;SDS011;29786;50.798;7.302;2023-07-28T06:04:19;3.4;;;2.5;;
44126;SDS011;29786;50.798;7.302;2023-07-28T06:05:19;5;;;2.3;;
44126;SDS011;29786;50.798;7.302;2023-07-28T06:06:19;7.2;;;3.1;;
44126;SDS011;29786;50.798;7.302;2023-07-28T06:07:20;9.3;;;2.6;;
44126;SDS011;29786;50.798;7.302;2023-07-28T06:08:20;2.7;;;2.3;;
44126;SDS011;29786;50.798;7.302;2023-07-28T06:09:19;3.9;;;2.3;;
44126;SDS011;29786;50.798;7.302;2023-07-28T06:10:19;44.1;;;3.8;;
44126;SDS011;29786;50.798;7.302;2023-07-28T06:11:20;39.7;;;3.7;;
44126;SDS011;29786;50.798;7.302;2023-07-28T06:12:19;73.1;;;5;;
44126;SDS011;29786;50.798;7.302;2023-07-28T06:13:19;10.2;;;2.7;;
44126;SDS011;29786;50.798;7.302;2023-07-28T06:14:20;11.8;;;2.9;;
44126;SDS011;29786;50.798;7.302;2023-07-28T06:15:19;4.8;;;2.5;;
44126;SDS011;29786;50.798;7.302;2023-07-28T06:16:19;6.4;;;2.6;;
44126;SDS011;29786;50.798;7.302;2023-07-28T06:17:20;11.5;;;2.7;;